createdAt,value
2018-01-10T00:01:18.480Z,21.37
2018-01-10T00:03:47.777Z,21.73
2018-01-10T00:06:17.021Z,21.20
2018-01-10T00:08:45.356Z,22.60
2018-01-10T00:11:13.769Z,21.73
2018-01-10T00:13:42.115Z,22.03
2018-01-10T00:16:10.499Z,21.93
2018-01-10T00:18:39.640Z,22.37
2018-01-10T00:21:08.551Z,21.50
2018-01-10T00:23:36.899Z,20.80
2018-01-10T00:26:05.244Z,21.23
2018-01-10T00:28:33.608Z,19.83
2018-01-10T00:31:02.730Z,20.87
2018-01-10T00:33:31.134Z,20.07
2018-01-10T00:35:59.506Z,18.53
2018-01-10T00:38:27.834Z,18.83
2018-01-10T00:40:57.237Z,19.87
2018-01-10T00:43:25.568Z,18.67
2018-01-10T00:45:53.943Z,20.53
2018-01-10T00:48:22.291Z,20.43
2018-01-10T00:50:50.645Z,19.23
2018-01-10T00:53:19.013Z,24.93
2018-01-10T00:55:47.354Z,23.20
2018-01-10T00:58:15.728Z,22.17
2018-01-10T01:00:44.113Z,17.97
2018-01-10T01:03:12.484Z,20.67
2018-01-10T01:05:40.860Z,20.70
2018-01-10T01:08:09.241Z,21.17
2018-01-10T01:10:37.609Z,20.37
2018-01-10T01:13:06.704Z,20.77
2018-01-10T01:15:35.070Z,20.50
2018-01-10T01:18:04.191Z,21.47
2018-01-10T01:20:32.587Z,20.73
2018-01-10T01:23:00.936Z,20.77
2018-01-10T01:25:29.342Z,20.53
2018-01-10T01:27:57.721Z,22.13
2018-01-10T01:30:26.060Z,21.07
2018-01-10T01:32:55.385Z,19.30
2018-01-10T01:35:23.731Z,20.50
2018-01-10T01:37:52.068Z,19.03
2018-01-10T01:40:20.441Z,21.13
2018-01-10T01:42:48.789Z,21.20
2018-01-10T01:45:17.156Z,21.20
2018-01-10T01:47:45.508Z,20.80
2018-01-10T01:50:13.859Z,21.57
2018-01-10T01:52:42.203Z,20.30
2018-01-10T01:55:11.334Z,21.20
2018-01-10T01:57:39.691Z,21.27
2018-01-10T02:00:08.052Z,20.57
2018-01-10T02:02:37.172Z,22.77
2018-01-10T02:05:05.512Z,22.13
2018-01-10T02:07:34.658Z,19.37
2018-01-10T02:10:03.020Z,20.17
2018-01-10T02:12:31.366Z,18.03
2018-01-10T02:15:00.482Z,19.80
2018-01-10T02:17:28.884Z,18.57
2018-01-10T02:19:57.236Z,25.37
2018-01-10T02:22:25.579Z,22.10
2018-01-10T02:24:53.932Z,22.63
2018-01-10T02:27:22.307Z,20.77
2018-01-10T02:29:50.833Z,19.03
2018-01-10T02:32:19.263Z,19.60
2018-01-10T02:34:47.643Z,19.97
2018-01-10T02:37:15.996Z,17.93
2018-01-10T02:39:44.341Z,18.93
2018-01-10T02:42:24.662Z,19.70
2018-01-10T02:44:53.004Z,19.20
2018-01-10T02:47:22.137Z,18.27
2018-01-10T02:49:50.497Z,19.07
2018-01-10T02:52:18.891Z,17.77
2018-01-10T02:54:47.242Z,20.57
2018-01-10T02:57:15.592Z,20.83
2018-01-10T02:59:44.031Z,18.00
2018-01-10T03:02:12.359Z,19.97
2018-01-10T03:04:40.737Z,18.80
2018-01-10T03:07:09.441Z,19.33
2018-01-10T03:09:38.566Z,20.93
2018-01-10T03:12:06.916Z,19.67
2018-01-10T03:14:35.256Z,20.60
2018-01-10T03:17:04.077Z,20.17
2018-01-10T03:19:33.166Z,20.80
2018-01-10T03:22:02.306Z,21.20
2018-01-10T03:24:30.663Z,20.53
2018-01-10T03:26:59.154Z,22.23
2018-01-10T03:29:27.500Z,20.23
2018-01-10T03:31:55.837Z,20.10
2018-01-10T03:34:24.195Z,20.20
2018-01-10T03:36:52.563Z,19.37
2018-01-10T03:39:21.692Z,19.43
2018-01-10T03:41:50.161Z,20.07
2018-01-10T03:44:18.553Z,19.43
2018-01-10T03:46:46.924Z,18.13
2018-01-10T03:49:15.268Z,19.27
2018-01-10T03:51:44.408Z,19.00
2018-01-10T03:54:13.702Z,19.97
2018-01-10T03:56:42.051Z,18.77
2018-01-10T03:59:10.399Z,18.83
2018-01-10T04:01:38.742Z,18.33
2018-01-10T04:04:07.084Z,19.67
2018-01-10T04:06:36.193Z,19.17
2018-01-10T04:09:04.561Z,18.03
2018-01-10T04:11:33.656Z,18.30
2018-01-10T04:14:02.796Z,18.07
2018-01-10T04:16:31.328Z,18.13
2018-01-10T04:19:00.446Z,18.93
2018-01-10T04:21:28.809Z,18.13
2018-01-10T04:23:57.903Z,18.53
2018-01-10T04:26:27.012Z,18.77
2018-01-10T04:28:55.365Z,18.63
2018-01-10T04:31:23.740Z,17.77
2018-01-10T04:33:52.197Z,18.43
2018-01-10T04:36:20.520Z,16.77
2018-01-10T04:38:49.655Z,18.13
2018-01-10T04:41:18.000Z,17.93
2018-01-10T04:43:47.128Z,17.77
2018-01-10T04:46:15.548Z,16.93
2018-01-10T04:48:43.902Z,17.10
2018-01-10T04:51:12.239Z,17.63
2018-01-10T04:53:40.730Z,17.30
2018-01-10T04:56:09.839Z,18.07
2018-01-10T04:58:38.166Z,17.60
2018-01-10T05:01:06.612Z,17.33
2018-01-10T05:03:35.006Z,16.73
2018-01-10T05:06:03.390Z,18.37
2018-01-10T05:08:31.739Z,18.87
2018-01-10T05:11:00.077Z,17.50
2018-01-10T05:13:29.207Z,17.07
2018-01-10T05:15:57.556Z,16.97
2018-01-10T05:18:25.981Z,16.57
2018-01-10T05:20:54.333Z,18.50
2018-01-10T05:23:22.693Z,17.63
2018-01-10T05:25:51.829Z,18.73
2018-01-10T05:28:20.165Z,17.60
2018-01-10T05:30:49.271Z,16.67
2018-01-10T05:33:17.615Z,16.93
2018-01-10T05:35:45.955Z,18.37
2018-01-10T05:38:14.426Z,18.27
2018-01-10T05:40:42.827Z,18.03
2018-01-10T05:43:11.179Z,18.07
2018-01-10T05:45:39.526Z,17.97
2018-01-10T05:48:07.896Z,17.80
2018-01-10T05:50:36.231Z,17.90
2018-01-10T05:53:04.628Z,17.47
2018-01-10T05:55:32.935Z,16.80
2018-01-10T05:58:01.380Z,17.37
2018-01-10T06:00:29.813Z,16.53
2018-01-10T06:02:58.167Z,17.87
2018-01-10T06:05:26.601Z,17.23
2018-01-10T06:07:55.691Z,18.50
2018-01-10T06:10:24.073Z,15.87
2018-01-10T06:12:52.452Z,16.50
2018-01-10T06:15:20.813Z,18.60
2018-01-10T06:17:49.943Z,17.40
2018-01-10T06:20:18.945Z,18.07
2018-01-10T06:22:47.279Z,17.40
2018-01-10T06:25:15.738Z,17.87
2018-01-10T06:27:44.092Z,16.47
2018-01-10T06:30:12.437Z,17.50
2018-01-10T06:32:40.959Z,16.87
2018-01-10T06:35:10.123Z,16.20
2018-01-10T06:37:38.569Z,17.87
2018-01-10T06:40:06.978Z,16.30
2018-01-10T06:42:35.668Z,16.80
2018-01-10T06:45:04.062Z,16.13
2018-01-10T06:47:32.405Z,17.20
2018-01-10T06:50:01.008Z,16.23
2018-01-10T06:52:29.356Z,15.03
2018-01-10T06:54:57.720Z,17.93
2018-01-10T06:57:26.054Z,16.87
2018-01-10T06:59:54.460Z,16.93
2018-01-10T07:02:22.904Z,16.80
2018-01-10T07:04:52.004Z,18.33
2018-01-10T07:07:20.394Z,18.70
2018-01-10T07:09:48.782Z,17.40
2018-01-10T07:12:17.109Z,17.30
2018-01-10T07:14:46.232Z,18.70
2018-01-10T07:17:14.578Z,18.20
2018-01-10T07:19:43.712Z,20.10
2018-01-10T07:22:12.036Z,18.27
2018-01-10T07:24:40.386Z,18.47
2018-01-10T07:27:08.756Z,19.27
2018-01-10T07:29:37.128Z,19.83
2018-01-10T07:32:06.251Z,17.90
2018-01-10T07:34:34.598Z,18.20
2018-01-10T07:37:02.993Z,19.00
2018-01-10T07:39:31.475Z,18.50
2018-01-10T07:41:59.866Z,18.17
2018-01-10T07:44:28.303Z,18.10
2018-01-10T07:46:56.633Z,17.37
2018-01-10T07:49:25.041Z,16.90
2018-01-10T07:51:53.398Z,17.37
2018-01-10T07:54:21.794Z,17.87
2018-01-10T07:56:50.137Z,17.53
2018-01-10T07:59:18.622Z,17.97
2018-01-10T08:01:46.966Z,15.70
2018-01-10T08:04:15.373Z,17.37
2018-01-10T08:06:43.715Z,16.73
2018-01-10T08:09:12.948Z,16.23
2018-01-10T08:11:41.427Z,15.63
2018-01-10T08:14:09.764Z,16.97
2018-01-10T08:16:38.949Z,16.30
2018-01-10T08:19:07.292Z,15.13
2018-01-10T08:21:35.632Z,14.50
2018-01-10T08:24:04.755Z,16.27
2018-01-10T08:26:33.127Z,15.67
2018-01-10T08:29:01.507Z,15.33
2018-01-10T08:31:29.899Z,15.13
2018-01-10T08:33:58.414Z,16.23
2018-01-10T08:36:26.772Z,14.97
2018-01-10T08:38:55.118Z,15.13
2018-01-10T08:41:23.473Z,16.23
2018-01-10T08:43:52.696Z,14.93
2018-01-10T08:46:21.091Z,15.43
2018-01-10T08:48:49.587Z,14.93
2018-01-10T08:51:17.976Z,15.03
2018-01-10T08:53:46.320Z,15.43
2018-01-10T08:56:14.833Z,15.57
2018-01-10T08:58:43.159Z,16.10
2018-01-10T09:01:12.294Z,15.60
2018-01-10T09:03:40.631Z,15.23
2018-01-10T09:06:09.752Z,15.40
2018-01-10T09:08:38.249Z,15.00
2018-01-10T09:11:06.596Z,15.13
2018-01-10T09:13:35.703Z,16.13
2018-01-10T09:16:04.069Z,15.87
2018-01-10T09:18:33.185Z,14.87
2018-01-10T09:21:01.539Z,15.97
2018-01-10T09:23:30.673Z,16.37
2018-01-10T09:25:59.046Z,15.63
2018-01-10T09:28:27.405Z,15.43
2018-01-10T09:30:56.541Z,15.10
2018-01-10T09:33:24.868Z,14.73
2018-01-10T09:35:54.007Z,15.53
2018-01-10T09:38:22.442Z,15.70
2018-01-10T09:40:51.551Z,15.43
2018-01-10T09:43:20.757Z,15.37
2018-01-10T09:45:49.087Z,14.20
2018-01-10T09:48:17.444Z,15.40
2018-01-10T09:50:45.809Z,15.70
2018-01-10T09:53:14.184Z,15.17
2018-01-10T09:55:42.573Z,14.37
2018-01-10T09:58:10.914Z,14.50
2018-01-10T10:00:39.257Z,14.93
2018-01-10T10:03:07.591Z,15.30
2018-01-10T10:05:35.983Z,15.17
2018-01-10T10:08:04.316Z,14.87
2018-01-10T10:10:32.673Z,15.37
2018-01-10T10:13:01.147Z,14.43
2018-01-10T10:15:29.521Z,14.30
2018-01-10T10:17:57.879Z,14.63
2018-01-10T10:20:26.219Z,15.00
2018-01-10T10:22:55.335Z,14.77
2018-01-10T10:25:24.460Z,14.10
2018-01-10T10:27:52.806Z,14.93
2018-01-10T10:30:21.937Z,15.30
2018-01-10T10:32:50.312Z,14.23
2018-01-10T10:35:18.672Z,14.53
2018-01-10T10:37:47.004Z,14.37
2018-01-10T10:40:15.477Z,13.50
2018-01-10T10:42:43.823Z,14.07
2018-01-10T10:45:12.193Z,13.73
2018-01-10T10:47:40.530Z,13.77
2018-01-10T10:50:09.450Z,13.60
2018-01-10T10:52:37.788Z,13.57
2018-01-10T10:55:06.224Z,13.27
2018-01-10T10:57:35.304Z,14.20
2018-01-10T11:00:04.441Z,12.70
2018-01-10T11:02:32.999Z,13.27
2018-01-10T11:05:01.329Z,12.53
2018-01-10T11:07:29.683Z,12.67
2018-01-10T11:09:58.030Z,12.50
2018-01-10T11:12:26.391Z,12.20
2018-01-10T11:14:55.524Z,11.23
2018-01-10T11:17:24.064Z,12.33
2018-01-10T11:19:52.486Z,12.00
2018-01-10T11:22:20.815Z,12.57
2018-01-10T11:24:49.235Z,12.27
2018-01-10T11:27:17.578Z,12.27
2018-01-10T11:29:45.929Z,12.03
2018-01-10T11:32:14.275Z,11.40
2018-01-10T11:34:42.669Z,11.40
2018-01-10T11:37:11.770Z,11.07
2018-01-10T11:39:40.155Z,10.97
2018-01-10T11:42:08.652Z,10.90
2018-01-10T11:44:37.000Z,11.73
2018-01-10T11:47:05.367Z,11.17
2018-01-10T11:49:33.834Z,11.43
2018-01-10T11:52:02.184Z,11.40
2018-01-10T11:54:30.542Z,9.63
2018-01-10T11:56:58.881Z,10.63
2018-01-10T11:59:27.226Z,11.00
2018-01-10T12:01:56.298Z,11.30
2018-01-10T12:04:24.653Z,10.37
2018-01-10T12:06:53.037Z,10.80
2018-01-10T12:09:21.414Z,10.17
2018-01-10T12:11:50.125Z,10.03
2018-01-10T12:14:18.477Z,11.03
2018-01-10T12:16:47.606Z,10.87
2018-01-10T12:19:15.953Z,10.13
2018-01-10T12:21:44.335Z,10.60
2018-01-10T12:24:12.745Z,10.20
2018-01-10T12:26:41.184Z,10.77
2018-01-10T12:29:09.543Z,10.97
2018-01-10T12:31:38.659Z,10.77
2018-01-10T12:34:07.018Z,10.80
2018-01-10T12:36:35.362Z,10.30
2018-01-10T12:39:03.718Z,10.30
2018-01-10T12:41:32.078Z,9.93
2018-01-10T12:44:00.458Z,9.80
2018-01-10T12:46:28.828Z,9.43
2018-01-10T12:48:57.240Z,9.93
2018-01-10T12:51:25.588Z,9.70
2018-01-10T12:53:53.931Z,10.17
2018-01-10T12:56:23.132Z,10.33
2018-01-10T12:58:52.356Z,10.93
2018-01-10T13:01:20.728Z,10.47
2018-01-10T13:03:49.068Z,10.33
2018-01-10T13:06:17.469Z,9.90
2018-01-10T13:08:45.819Z,10.27
2018-01-10T13:11:14.218Z,9.60
2018-01-10T13:13:42.587Z,9.90
2018-01-10T13:16:10.926Z,9.70
2018-01-10T13:18:39.301Z,9.23
2018-01-10T13:21:07.647Z,9.00
2018-01-10T13:23:36.739Z,9.83
2018-01-10T13:26:05.895Z,9.13
2018-01-10T13:28:34.263Z,10.07
2018-01-10T13:31:02.587Z,9.17
2018-01-10T13:33:31.717Z,9.13
2018-01-10T13:36:00.123Z,9.10
2018-01-10T13:38:28.409Z,9.53
2018-01-10T13:40:56.786Z,10.37
2018-01-10T13:43:25.089Z,9.90
2018-01-10T13:45:53.471Z,9.77
2018-01-10T13:48:21.917Z,9.37
2018-01-10T13:50:50.272Z,9.30
2018-01-10T13:53:18.614Z,9.43
2018-01-10T13:55:46.979Z,9.30
2018-01-10T13:58:15.299Z,8.73
2018-01-10T14:00:43.645Z,9.63
2018-01-10T14:03:11.998Z,8.60
2018-01-10T14:05:40.556Z,9.47
2018-01-10T14:08:08.922Z,9.67
2018-01-10T14:10:37.271Z,10.20
2018-01-10T14:13:06.411Z,9.40
2018-01-10T14:15:34.810Z,9.83
2018-01-10T14:18:04.930Z,8.50
2018-01-10T14:20:33.756Z,9.60
2018-01-10T14:23:02.176Z,8.93
2018-01-10T14:25:30.604Z,9.43
2018-01-10T14:27:59.840Z,9.17
2018-01-10T14:30:28.977Z,8.53
2018-01-10T14:32:57.443Z,8.93
2018-01-10T14:35:25.796Z,9.23
2018-01-10T14:37:54.921Z,9.03
2018-01-10T14:40:23.332Z,9.20
2018-01-10T14:42:51.768Z,8.87
2018-01-10T14:45:20.122Z,8.50
2018-01-10T14:47:49.290Z,8.10
2018-01-10T14:50:17.720Z,8.07
2018-01-10T14:52:46.052Z,8.63
2018-01-10T14:55:14.408Z,8.23
2018-01-10T14:57:42.721Z,8.27
2018-01-10T15:00:11.863Z,8.57
2018-01-10T15:02:40.246Z,8.03
2018-01-10T15:05:08.580Z,8.40
2018-01-10T15:07:36.907Z,8.57
2018-01-10T15:10:05.249Z,8.13
2018-01-10T15:12:34.355Z,8.10
2018-01-10T15:15:02.715Z,8.17
2018-01-10T15:17:31.047Z,8.17
2018-01-10T15:19:59.414Z,7.83
2018-01-10T15:22:27.788Z,8.00
2018-01-10T15:24:56.204Z,9.27
2018-01-10T15:27:24.579Z,9.20
2018-01-10T15:29:53.017Z,7.60
2018-01-10T15:32:21.336Z,7.87
2018-01-10T15:34:49.685Z,8.47
2018-01-10T15:37:18.059Z,7.47
2018-01-10T15:39:46.403Z,7.27
2018-01-10T15:42:15.531Z,7.30
2018-01-10T15:44:43.888Z,6.70
2018-01-10T15:47:12.833Z,7.17
2018-01-10T15:49:41.286Z,7.23
2018-01-10T15:52:09.683Z,6.77
2018-01-10T15:54:38.008Z,7.03
2018-01-10T15:57:06.431Z,6.87
2018-01-10T15:59:34.760Z,7.33
2018-01-10T16:02:03.204Z,7.17
2018-01-10T16:04:31.565Z,7.90
2018-01-10T16:07:00.000Z,7.83
2018-01-10T16:09:28.424Z,7.40
2018-01-10T16:11:56.792Z,7.90
2018-01-10T16:14:25.276Z,6.90
2018-01-10T16:16:53.623Z,7.20
2018-01-10T16:19:22.766Z,7.17
2018-01-10T16:21:51.119Z,6.30
2018-01-10T16:24:20.239Z,6.73
2018-01-10T16:26:48.587Z,6.40
2018-01-10T16:29:17.684Z,5.77
2018-01-10T16:31:46.824Z,7.43
2018-01-10T16:34:15.192Z,5.87
2018-01-10T16:36:43.531Z,6.87
2018-01-10T16:39:11.874Z,7.13
2018-01-10T16:41:40.238Z,7.47
2018-01-10T16:44:08.685Z,6.57
2018-01-10T16:46:37.917Z,6.03
2018-01-10T16:49:06.278Z,6.30
2018-01-10T16:51:34.617Z,7.13
2018-01-10T16:54:03.384Z,7.13
2018-01-10T16:56:31.715Z,6.87
2018-01-10T16:59:00.050Z,5.73
2018-01-10T17:01:28.502Z,6.70
2018-01-10T17:03:56.833Z,6.27
2018-01-10T17:06:25.957Z,7.63
2018-01-10T17:08:54.378Z,7.70
2018-01-10T17:11:22.950Z,8.53
2018-01-10T17:13:51.275Z,7.50
2018-01-10T17:16:20.397Z,8.00
2018-01-10T17:18:48.791Z,7.60
2018-01-10T17:21:17.139Z,7.10
2018-01-10T17:23:46.266Z,7.80
2018-01-10T17:26:14.610Z,8.00
2018-01-10T17:28:43.763Z,8.20
2018-01-10T17:31:12.680Z,7.97
2018-01-10T17:33:41.057Z,7.77
2018-01-10T17:36:09.490Z,8.40
2018-01-10T17:38:37.829Z,8.13
2018-01-10T17:41:06.165Z,9.10
2018-01-10T17:43:34.526Z,9.30
2018-01-10T17:46:03.110Z,9.30
2018-01-10T17:48:31.452Z,7.43
2018-01-10T17:50:59.817Z,7.90
2018-01-10T17:53:28.265Z,8.13
2018-01-10T17:55:56.588Z,8.43
2018-01-10T17:58:25.747Z,9.10
2018-01-10T18:00:54.106Z,8.53
2018-01-10T18:03:22.584Z,7.70
2018-01-10T18:05:50.935Z,7.40
2018-01-10T18:08:20.248Z,8.03
2018-01-10T18:10:48.623Z,8.37
2018-01-10T18:13:17.711Z,9.17
2018-01-10T18:15:46.832Z,8.33
2018-01-10T18:18:15.194Z,9.37
2018-01-10T18:20:43.549Z,9.27
2018-01-10T18:23:11.882Z,8.97
2018-01-10T18:25:40.248Z,8.67
2018-01-10T18:28:08.587Z,8.53
2018-01-10T18:30:37.013Z,8.07
2018-01-10T18:33:05.355Z,11.13
2018-01-10T18:35:34.456Z,10.07
2018-01-10T18:38:03.102Z,9.33
2018-01-10T18:40:31.421Z,9.13
2018-01-10T18:43:00.536Z,9.27
2018-01-10T18:45:28.905Z,7.53
2018-01-10T18:47:57.248Z,7.80
2018-01-10T18:50:25.590Z,8.47
2018-01-10T18:52:53.972Z,8.87
2018-01-10T18:55:22.312Z,9.60
2018-01-10T18:57:51.461Z,10.87
2018-01-10T19:00:20.062Z,18.47
2018-01-10T19:02:48.390Z,12.60
2018-01-10T19:05:16.753Z,10.57
2018-01-10T19:07:45.100Z,10.00
2018-01-10T19:10:13.464Z,10.87
2018-01-10T19:12:41.804Z,10.17
2018-01-10T19:15:10.140Z,9.60
2018-01-10T19:17:38.592Z,10.27
2018-01-10T19:20:06.924Z,40.97
2018-01-10T19:22:35.327Z,35.67
2018-01-10T19:25:03.716Z,14.13
2018-01-10T19:27:32.057Z,12.07
2018-01-10T19:30:01.163Z,11.87
2018-01-10T19:32:30.091Z,11.30
2018-01-10T19:34:58.567Z,11.37
2018-01-10T19:37:26.940Z,11.70
2018-01-10T19:39:55.289Z,10.97
2018-01-10T19:42:24.391Z,11.60
2018-01-10T19:44:52.734Z,10.27
2018-01-10T19:47:21.088Z,12.20
2018-01-10T19:49:49.418Z,11.40
2018-01-10T19:52:18.550Z,10.93
2018-01-10T19:54:47.414Z,10.83
2018-01-10T19:57:17.469Z,12.00
2018-01-10T19:59:45.819Z,11.27
2018-01-10T20:02:14.223Z,12.17
2018-01-10T20:04:42.584Z,10.90
2018-01-10T20:07:10.959Z,11.67
2018-01-10T20:09:39.334Z,12.10
2018-01-10T20:12:07.734Z,12.70
2018-01-10T20:14:36.133Z,10.80
2018-01-10T20:17:04.505Z,12.30
2018-01-10T20:19:32.920Z,12.43
2018-01-10T20:22:01.374Z,10.90
2018-01-10T20:24:29.722Z,10.73
2018-01-10T20:26:58.090Z,11.63
2018-01-10T20:29:26.420Z,10.90
2018-01-10T20:31:54.794Z,11.57
2018-01-10T20:34:23.240Z,11.27
2018-01-10T20:36:51.579Z,12.70
2018-01-10T20:39:20.709Z,11.53
2018-01-10T20:41:49.049Z,11.13
2018-01-10T20:44:17.477Z,11.90
2018-01-10T20:46:45.810Z,11.23
2018-01-10T20:49:14.918Z,12.20
2018-01-10T20:51:44.045Z,10.97
2018-01-10T20:54:12.382Z,11.83
2018-01-10T20:56:40.723Z,10.90
2018-01-10T20:59:09.103Z,10.97
2018-01-10T21:01:37.545Z,11.40
2018-01-10T21:04:06.212Z,10.60
2018-01-10T21:06:34.630Z,11.33
2018-01-10T21:09:02.971Z,11.60
2018-01-10T21:11:32.088Z,11.80
2018-01-10T21:14:00.436Z,15.10
2018-01-10T21:16:28.870Z,15.10
2018-01-10T21:18:57.258Z,13.37
2018-01-10T21:21:25.632Z,12.17
2018-01-10T21:23:54.194Z,12.07
2018-01-10T21:26:22.643Z,11.77
2018-01-10T21:28:51.139Z,11.40
2018-01-10T21:31:20.266Z,11.63
2018-01-10T21:33:48.612Z,12.03
2018-01-10T21:36:17.786Z,13.47
2018-01-10T21:38:46.145Z,10.60
2018-01-10T21:41:14.475Z,11.30
2018-01-10T21:43:43.739Z,12.20
2018-01-10T21:46:12.077Z,13.73
2018-01-10T21:48:40.432Z,17.00
2018-01-10T21:51:09.539Z,15.93
2018-01-10T21:53:37.987Z,13.90
2018-01-10T21:56:06.364Z,11.77
2018-01-10T21:58:34.684Z,12.13
2018-01-10T22:01:03.075Z,12.13
2018-01-10T22:03:31.451Z,11.93
2018-01-10T22:06:00.520Z,11.30
2018-01-10T22:08:29.615Z,11.70
2018-01-10T22:10:58.786Z,12.33
2018-01-10T22:13:27.136Z,11.70
2018-01-10T22:15:55.503Z,12.53
2018-01-10T22:18:24.350Z,13.57
2018-01-10T22:20:52.676Z,12.97
2018-01-10T22:23:21.021Z,14.27
2018-01-10T22:25:49.353Z,12.00
2018-01-10T22:28:17.714Z,13.73
2018-01-10T22:30:46.045Z,13.20
2018-01-10T22:33:14.392Z,12.83
2018-01-10T22:35:42.736Z,11.60
2018-01-10T22:38:11.140Z,11.83
2018-01-10T22:40:39.478Z,10.70
2018-01-10T22:43:07.882Z,10.23
2018-01-10T22:45:36.250Z,10.57
2018-01-10T22:48:04.599Z,10.63
2018-01-10T22:50:32.965Z,10.90
2018-01-10T22:53:01.309Z,11.67
2018-01-10T22:55:29.683Z,11.20
2018-01-10T22:57:58.145Z,11.00
2018-01-10T23:00:26.481Z,10.37
2018-01-10T23:02:54.917Z,10.27
2018-01-10T23:05:23.247Z,10.10
2018-01-10T23:07:52.383Z,10.00
2018-01-10T23:10:20.760Z,9.13
2018-01-10T23:12:49.087Z,8.73
2018-01-10T23:15:17.468Z,9.47
2018-01-10T23:17:45.809Z,8.37
2018-01-10T23:20:14.180Z,8.87
2018-01-10T23:22:42.522Z,9.80
2018-01-10T23:25:10.854Z,9.37
2018-01-10T23:27:39.203Z,11.23
2018-01-10T23:30:07.595Z,10.00
2018-01-10T23:32:35.969Z,9.30
2018-01-10T23:35:04.349Z,11.07
2018-01-10T23:37:32.719Z,10.40
2018-01-10T23:40:01.081Z,11.07
2018-01-10T23:42:30.182Z,12.27
2018-01-10T23:44:59.309Z,13.07
2018-01-10T23:47:27.660Z,13.27
2018-01-10T23:49:56.828Z,14.33
2018-01-10T23:52:25.164Z,14.40
2018-01-10T23:54:53.546Z,14.40
2018-01-10T23:57:21.901Z,14.33
2018-01-10T23:59:50.309Z,14.53
